Map

Track Data

SID SEASON NUMBER BASIN SUBBASIN NAME ISO_TIME NATURE LAT LON WMO_WIND WMO_PRES WMO_AGENCY TRACK_TYPE DIST2LAND LANDFALL IFLAG USA_AGENCY USA_ATCF_ID USA_LAT USA_LON USA_RECORD USA_STATUS USA_WIND USA_PRES USA_SSHS USA_R34_NE USA_R34_SE USA_R34_SW USA_R34_NW USA_R50_NE USA_R50_SE USA_R50_SW USA_R50_NW USA_R64_NE USA_R64_SE USA_R64_SW USA_R64_NW USA_POCI USA_ROCI USA_RMW USA_EYE TOKYO_LAT TOKYO_LON TOKYO_GRADE TOKYO_WIND TOKYO_PRES TOKYO_R50_DIR TOKYO_R50_LONG TOKYO_R50_SHORT TOKYO_R30_DIR TOKYO_R30_LONG TOKYO_R30_SHORT TOKYO_LAND CMA_LAT CMA_LON CMA_CAT CMA_WIND CMA_PRES HKO_LAT HKO_LON HKO_CAT HKO_WIND HKO_PRES NEWDELHI_LAT NEWDELHI_LON NEWDELHI_GRADE NEWDELHI_WIND NEWDELHI_PRES NEWDELHI_CI NEWDELHI_DP NEWDELHI_POCI REUNION_LAT REUNION_LON REUNION_TYPE REUNION_WIND REUNION_PRES REUNION_TNUM REUNION_CI REUNION_RMW REUNION_R34_NE REUNION_R34_SE REUNION_R34_SW REUNION_R34_NW REUNION_R50_NE REUNION_R50_SE REUNION_R50_SW REUNION_R50_NW REUNION_R64_NE REUNION_R64_SE REUNION_R64_SW REUNION_R64_NW BOM_LAT BOM_LON BOM_TYPE BOM_WIND BOM_PRES BOM_TNUM BOM_CI BOM_RMW BOM_R34_NE BOM_R34_SE BOM_R34_SW BOM_R34_NW BOM_R50_NE BOM_R50_SE BOM_R50_SW BOM_R50_NW BOM_R64_NE BOM_R64_SE BOM_R64_SW BOM_R64_NW BOM_ROCI BOM_POCI BOM_EYE BOM_POS_METHOD BOM_PRES_METHOD NADI_LAT NADI_LON NADI_CAT NADI_WIND NADI_PRES WELLINGTON_LAT WELLINGTON_LON WELLINGTON_WIND WELLINGTON_PRES DS824_LAT DS824_LON DS824_STAGE DS824_WIND DS824_PRES TD9636_LAT TD9636_LON TD9636_STAGE TD9636_WIND TD9636_PRES TD9635_LAT TD9635_LON TD9635_WIND TD9635_PRES TD9635_ROCI NEUMANN_LAT NEUMANN_LON NEUMANN_CLASS NEUMANN_WIND NEUMANN_PRES MLC_LAT MLC_LON MLC_CLASS MLC_WIND MLC_PRES USA_GUST BOM_GUST BOM_GUST_PER REUNION_GUST REUNION_GUST_PER USA_SEAHGT USA_SEARAD_NE USA_SEARAD_SE USA_SEARAD_SW USA_SEARAD_NW STORM_SPEED STORM_DIR
1890303N12280 1890 38 NA CS NOT_NAMED 1890-10-30 00:00:00 TS 11.5000 -80.0000 main 226 226 _____________O -1 11.5000 -80.0000 TD 30 9 293
1890303N12280 1890 38 NA CS NOT_NAMED 1890-10-30 03:00:00 TS 11.6651 -80.4024 main 258 258 _____________P -1 11.6651 -80.4024 TD 30 8 291
1890303N12280 1890 38 NA CS NOT_NAMED 1890-10-30 06:00:00 TS 11.8000 -80.8000 main 284 256 _____________O -1 11.8000 -80.8000 TD 30 8 287
1890303N12280 1890 38 NA CS NOT_NAMED 1890-10-30 09:00:00 TS 11.8925 -81.1801 main 256 222 _____________P -1 11.8925 -81.1801 TD 35 7 286
1890303N12280 1890 38 NA CS NOT_NAMED 1890-10-30 12:00:00 TS 12.0000 -81.5000 main 222 196 _____________O -1 12.0000 -81.5000 TS 40 6 299
1890303N12280 1890 38 NA CS NOT_NAMED 1890-10-30 15:00:00 TS 12.1849 -81.7225 main 196 173 _____________P -1 12.1849 -81.7225 TS 50 6 316
1890303N12280 1890 38 NA CS NOT_NAMED 1890-10-30 18:00:00 TS 12.4000 -81.9000 main 173 152 _____________O -1 12.4000 -81.9000 TS 60 6 318
1890303N12280 1890 38 NA CS NOT_NAMED 1890-10-30 21:00:00 TS 12.6000 -82.1000 main 152 151 _____________P -1 12.6000 -82.1000 TS 67 9 16
1890303N12280 1890 38 NA CS NOT_NAMED 1890-10-31 00:00:00 TS 13.3000 -81.6333 80 hurdat_atl main 205 185 O____________O hurdat_atl AL041890 14.3000 -80.3000 HU 80 1 12.8000 -82.3000 HU 75 12 22
1890303N12280 1890 38 NA CS NOT_NAMED 1890-10-31 03:00:00 TS 13.6801 -81.6537 main 175 157 P____________P AL041890 14.3527 -80.7999 HU 80 1 13.0075 -82.5075 HU 75 7 340
1890303N12280 1890 38 NA CS NOT_NAMED 1890-10-31 06:00:00 TS 13.9200 -81.8600 80 hurdat_atl main 147 120 O____________O hurdat_atl AL041890 14.4000 -81.3000 HU 80 1 13.2000 -82.7000 HU 75 6 309
1890303N12280 1890 38 NA CS NOT_NAMED 1890-10-31 09:00:00 TS 14.0783 -82.1551 main 110 76 P____________P AL041890 14.4424 -81.8001 HU 80 1 13.3500 -82.8650 HU 75 7 291
1890303N12280 1890 38 NA CS NOT_NAMED 1890-10-31 12:00:00 TS 14.1667 -82.5333 80 hurdat_atl main 76 32 O____________O hurdat_atl AL041890 14.5000 -82.3000 HU 80 1 13.5000 -83.0000 HU 75 8 287
1890303N12280 1890 38 NA CS NOT_NAMED 1890-10-31 15:00:00 TS 14.2924 -82.9000 main 32 10 P____________P AL041890 14.5923 -82.7925 HU 80 1 13.6925 -83.1150 HU 75 8 291
1890303N12280 1890 38 NA CS NOT_NAMED 1890-10-31 18:00:00 TS 14.4333 -83.2667 80 hurdat_atl main 0 0 O____________O hurdat_atl AL041890 14.7000 -83.3000 HU 80 1 13.9000 -83.2000 HU 75 8 291
1890303N12280 1890 38 NA NA NOT_NAMED 1890-10-31 21:00:00 TS 14.5666 -83.6475 main 0 0 P____________P AL041890 14.7999 -83.8425 HU 67 1 14.1000 -83.2575 HU 75 7 289
1890303N12280 1890 38 NA NA NOT_NAMED 1890-11-01 00:00:00 TS 14.6600 -83.9600 55 hurdat_atl main 0 0 O____________O hurdat_atl AL041890 14.9000 -84.4000 TS 55 0 14.3000 -83.3000 HU 75 5 291
1890303N12280 1890 38 NA NA NOT_NAMED 1890-11-01 03:00:00 TS 14.7501 -84.1512 main 0 0 P____________P AL041890 15.0002 -84.9524 TS 45 0 14.5000 -83.3500 HU 75 2 322
1890303N12280 1890 38 NA NA NOT_NAMED 1890-11-01 06:00:00 TS 14.8333 -84.1000 35 hurdat_atl main 0 0 O____________O hurdat_atl AL041890 15.1000 -85.5000 TS 35 0 14.7000 -83.4000 HU 75 7 78
1890303N12280 1890 38 NA NA NOT_NAMED 1890-11-01 09:00:00 TS 14.8925 -83.4575 main 0 0 _____________P AL041890 TS -1 14.8925 -83.4575 HU 75 6 65
1890303N12280 1890 38 NA NA NOT_NAMED 1890-11-01 12:00:00 TS 15.1000 -83.5000 main 0 0 _____________O -1 15.1000 -83.5000 HU 75 5 354
1890303N12280 1890 38 NA CS NOT_NAMED 1890-11-01 15:00:00 TS 15.3425 -83.5150 main 0 0 _____________P -1 15.3425 -83.5150 HU 75 5 2
1890303N12280 1890 38 NA CS NOT_NAMED 1890-11-01 18:00:00 TS 15.6000 -83.5000 main 30 30 _____________O -1 15.6000 -83.5000 HU 75 5 5
1890303N12280 1890 38 NA CS NOT_NAMED 1890-11-01 21:00:00 TS 15.8500 -83.4650 main 49 49 _____________P -1 15.8500 -83.4650 HU 72 5 11
1890303N12280 1890 38 NA CS NOT_NAMED 1890-11-02 00:00:00 TS 16.1000 -83.4000 main 84 84 _____________O -1 16.1000 -83.4000 HU 70 5 17
1890303N12280 1890 38 NA CS NOT_NAMED 1890-11-02 03:00:00 TS 16.3575 -83.3075 main 116 116 _____________P -1 16.3575 -83.3075 HU 67 5 21
1890303N12280 1890 38 NA CS NOT_NAMED 1890-11-02 06:00:00 TS 16.6000 -83.2000 main 140 140 _____________O -1 16.6000 -83.2000 HU 65 5 23
1890303N12280 1890 38 NA CS NOT_NAMED 1890-11-02 09:00:00 TS 16.7774 -83.1223 main 165 165 _____________P -1 16.7774 -83.1223 HU 60 4 25
1890303N12280 1890 38 NA CS NOT_NAMED 1890-11-02 12:00:00 TS 17.0000 -83.0000 main 189 189 _____________O -1 17.0000 -83.0000 TS 55 6 21
1890303N12280 1890 38 NA CS NOT_NAMED 1890-11-02 15:00:00 TS 17.3014 -82.9055 main 223 223 _____________P -1 17.3014 -82.9055 TS 50 9 31
1890303N12280 1890 38 NA CS NOT_NAMED 1890-11-02 18:00:00 TS 17.8000 -82.5000 main 293 293 _____________O -1 17.8000 -82.5000 TS 45 18 46
1890303N12280 1890 38 NA CS NOT_NAMED 1890-11-02 21:00:00 TS 18.5730 -81.5271 main 330 238 _____________P -1 18.5730 -81.5271 TS 40 28 52
1890303N12280 1890 38 NA CS NOT_NAMED 1890-11-03 00:00:00 TS 19.5000 -80.2000 main 234 _____________O -1 19.5000 -80.2000 TS 35 31 53

About IBTrACS Database

This database is a web-friendly format of International Best Track Archive for Climate Stewardship (IBTrACS), a global best track data archive curated by NOAA dating back to 1842.

Updated: 2021-10-21